sensor_id;sensor_type;location;lat;lon;timestamp;pressure;altitude;pressure_sealevel;temperature;humidity
68366;BME280;55283;51.466;5.478;2023-06-14T00:00:37;101264.34;;;28.28;35.15
68366;BME280;55283;51.466;5.478;2023-06-14T00:03:06;101258.31;;;28.20;35.17
68366;BME280;55283;51.466;5.478;2023-06-14T00:05:33;101263.19;;;28.19;35.41
68366;BME280;55283;51.466;5.478;2023-06-14T00:08:03;101274.66;;;28.25;35.17
68366;BME280;55283;51.466;5.478;2023-06-14T00:10:32;101268.47;;;28.27;35.43
68366;BME280;55283;51.466;5.478;2023-06-14T00:13:00;101269.44;;;28.24;35.06
68366;BME280;55283;51.466;5.478;2023-06-14T00:15:26;101265.34;;;28.25;35.11
68366;BME280;55283;51.466;5.478;2023-06-14T00:17:51;101278.53;;;28.28;35.27
68366;BME280;55283;51.466;5.478;2023-06-14T00:20:17;101277.47;;;28.25;35.15
68366;BME280;55283;51.466;5.478;2023-06-14T00:22:42;101278.47;;;28.22;35.32
68366;BME280;55283;51.466;5.478;2023-06-14T00:25:08;101274.81;;;28.21;35.44
68366;BME280;55283;51.466;5.478;2023-06-14T00:27:33;101283.81;;;28.20;34.94
68366;BME280;55283;51.466;5.478;2023-06-14T00:29:59;101277.06;;;28.17;35.07
68366;BME280;55283;51.466;5.478;2023-06-14T00:32:24;101282.44;;;28.15;35.51
68366;BME280;55283;51.466;5.478;2023-06-14T00:34:51;101286.03;;;28.16;35.57
68366;BME280;55283;51.466;5.478;2023-06-14T00:37:16;101272.06;;;28.12;35.36
68366;BME280;55283;51.466;5.478;2023-06-14T00:39:42;101275.88;;;28.09;35.17
68366;BME280;55283;51.466;5.478;2023-06-14T00:42:07;101278.34;;;28.16;35.52
68366;BME280;55283;51.466;5.478;2023-06-14T00:44:32;101285.00;;;28.13;35.26
68366;BME280;55283;51.466;5.478;2023-06-14T00:46:58;101284.50;;;28.15;35.08
68366;BME280;55283;51.466;5.478;2023-06-14T00:49:24;101287.31;;;28.15;35.50
68366;BME280;55283;51.466;5.478;2023-06-14T00:51:49;101280.38;;;28.16;35.23
68366;BME280;55283;51.466;5.478;2023-06-14T00:54:15;101284.50;;;28.15;35.25
68366;BME280;55283;51.466;5.478;2023-06-14T00:56:42;101279.31;;;28.13;35.10
68366;BME280;55283;51.466;5.478;2023-06-14T00:59:09;101281.84;;;28.11;35.24
68366;BME280;55283;51.466;5.478;2023-06-14T01:01:36;101280.25;;;28.10;35.25
68366;BME280;55283;51.466;5.478;2023-06-14T01:04:02;101282.81;;;28.08;35.24
68366;BME280;55283;51.466;5.478;2023-06-14T01:11:47;101283.09;;;28.10;35.19
68366;BME280;55283;51.466;5.478;2023-06-14T01:14:16;101285.47;;;28.12;35.48
68366;BME280;55283;51.466;5.478;2023-06-14T01:16:43;101288.50;;;28.08;35.10
68366;BME280;55283;51.466;5.478;2023-06-14T01:19:11;101288.00;;;28.10;35.16
68366;BME280;55283;51.466;5.478;2023-06-14T01:21:38;101286.13;;;28.07;35.42
68366;BME280;55283;51.466;5.478;2023-06-14T01:24:08;101276.84;;;28.06;35.48
68366;BME280;55283;51.466;5.478;2023-06-14T01:26:34;101282.81;;;28.08;35.42
68366;BME280;55283;51.466;5.478;2023-06-14T01:29:02;101280.97;;;28.05;35.19
68366;BME280;55283;51.466;5.478;2023-06-14T01:31:29;101283.78;;;28.05;35.18
68366;BME280;55283;51.466;5.478;2023-06-14T01:33:54;101284.38;;;28.09;35.30
68366;BME280;55283;51.466;5.478;2023-06-14T01:36:21;101278.72;;;28.09;35.12
68366;BME280;55283;51.466;5.478;2023-06-14T01:38:48;101282.50;;;28.06;35.43
68366;BME280;55283;51.466;5.478;2023-06-14T01:41:16;101278.13;;;28.05;35.54
68366;BME280;55283;51.466;5.478;2023-06-14T01:43:43;101285.34;;;28.06;35.35
68366;BME280;55283;51.466;5.478;2023-06-14T01:46:09;101288.97;;;28.07;35.18
68366;BME280;55283;51.466;5.478;2023-06-14T01:48:35;101277.81;;;28.03;35.27
68366;BME280;55283;51.466;5.478;2023-06-14T01:51:00;101284.06;;;28.07;35.41
68366;BME280;55283;51.466;5.478;2023-06-14T01:53:26;101282.81;;;28.08;35.41
68366;BME280;55283;51.466;5.478;2023-06-14T01:55:51;101282.81;;;28.08;35.24
68366;BME280;55283;51.466;5.478;2023-06-14T01:58:19;101273.53;;;28.08;35.41
68366;BME280;55283;51.466;5.478;2023-06-14T02:00:44;101276.06;;;28.06;35.43
68366;BME280;55283;51.466;5.478;2023-06-14T02:03:11;101273.13;;;28.00;35.46
68366;BME280;55283;51.466;5.478;2023-06-14T02:05:37;101276.06;;;28.06;35.21
68366;BME280;55283;51.466;5.478;2023-06-14T02:08:04;101280.66;;;28.03;35.01
68366;BME280;55283;51.466;5.478;2023-06-14T02:10:30;101278.91;;;28.06;35.14
68366;BME280;55283;51.466;5.478;2023-06-14T02:12:55;101278.41;;;28.07;35.18
68366;BME280;55283;51.466;5.478;2023-06-14T02:15:20;101269.31;;;28.03;35.33
68366;BME280;55283;51.466;5.478;2023-06-14T02:17:47;101285.34;;;28.06;35.21
68366;BME280;55283;51.466;5.478;2023-06-14T02:20:14;101285.84;;;28.05;35.35
68366;BME280;55283;51.466;5.478;2023-06-14T02:22:40;101282.22;;;28.04;35.30
68366;BME280;55283;51.466;5.478;2023-06-14T02:25:06;101281.75;;;28.06;34.93
68366;BME280;55283;51.466;5.478;2023-06-14T02:27:32;101281.25;;;28.07;35.01
68366;BME280;55283;51.466;5.478;2023-06-14T02:29:58;101282.72;;;28.03;34.94
68366;BME280;55283;51.466;5.478;2023-06-14T02:32:24;101285.84;;;28.05;35.43
68366;BME280;55283;51.466;5.478;2023-06-14T02:34:49;101288.97;;;28.07;35.24
68366;BME280;55283;51.466;5.478;2023-06-14T02:37:16;101287.41;;;28.06;35.05
68366;BME280;55283;51.466;5.478;2023-06-14T02:39:41;101294.03;;;28.03;35.38
68366;BME280;55283;51.466;5.478;2023-06-14T02:42:07;101288.84;;;28.01;35.26
68366;BME280;55283;51.466;5.478;2023-06-14T02:44:32;101298.75;;;28.06;34.93
68366;BME280;55283;51.466;5.478;2023-06-14T02:46:58;101291.69;;;28.01;35.24
68366;BME280;55283;51.466;5.478;2023-06-14T02:49:25;101291.22;;;28.03;35.09
68366;BME280;55283;51.466;5.478;2023-06-14T02:51:51;101292.47;;;28.02;35.20
68366;BME280;55283;51.466;5.478;2023-06-14T02:54:17;101288.84;;;28.01;35.33
68366;BME280;55283;51.466;5.478;2023-06-14T02:56:42;101298.94;;;28.02;35.16
68366;BME280;55283;51.466;5.478;2023-06-14T02:59:07;101286.22;;;27.97;35.26
68366;BME280;55283;51.466;5.478;2023-06-14T03:01:34;101297.00;;;28.08;34.88
68366;BME280;55283;51.466;5.478;2023-06-14T03:04:03;101293.66;;;28.10;34.94
68366;BME280;55283;51.466;5.478;2023-06-14T03:06:29;101300.28;;;28.07;35.12
68366;BME280;55283;51.466;5.478;2023-06-14T03:08:59;101295.47;;;27.98;35.03
68366;BME280;55283;51.466;5.478;2023-06-14T03:11:27;101309.56;;;28.07;35.08
68366;BME280;55283;51.466;5.478;2023-06-14T03:13:53;101298.13;;;28.02;34.89
68366;BME280;55283;51.466;5.478;2023-06-14T03:16:19;101309.47;;;28.02;35.14
68366;BME280;55283;51.466;5.478;2023-06-14T03:18:45;101311.81;;;28.03;35.15
68366;BME280;55283;51.466;5.478;2023-06-14T03:21:10;101315.94;;;28.02;35.34
68366;BME280;55283;51.466;5.478;2023-06-14T03:23:36;101320.75;;;28.11;34.86
68366;BME280;55283;51.466;5.478;2023-06-14T03:26:01;101314.34;;;28.01;35.03
68366;BME280;55283;51.466;5.478;2023-06-14T03:28:28;101313.38;;;28.04;34.87
68366;BME280;55283;51.466;5.478;2023-06-14T03:30:54;101314.19;;;28.05;35.19
68366;BME280;55283;51.466;5.478;2023-06-14T03:33:19;101319.84;;;28.05;34.89
68366;BME280;55283;51.466;5.478;2023-06-14T03:35:46;101329.59;;;28.04;34.79
68366;BME280;55283;51.466;5.478;2023-06-14T03:38:11;101337.00;;;28.01;34.91
68366;BME280;55283;51.466;5.478;2023-06-14T03:40:37;101312.22;;;27.96;35.25
68366;BME280;55283;51.466;5.478;2023-06-14T03:43:02;101331.34;;;28.01;35.22
68366;BME280;55283;51.466;5.478;2023-06-14T03:45:27;101326.00;;;28.03;35.13
68366;BME280;55283;51.466;5.478;2023-06-14T03:47:53;101327.84;;;28.06;35.16
68366;BME280;55283;51.466;5.478;2023-06-14T03:50:19;101335.88;;;28.08;34.75
68366;BME280;55283;51.466;5.478;2023-06-14T03:52:45;101333.53;;;28.06;35.04
68366;BME280;55283;51.466;5.478;2023-06-14T03:55:11;101336.06;;;28.04;35.02
68366;BME280;55283;51.466;5.478;2023-06-14T03:57:38;101331.34;;;28.01;34.91
68366;BME280;55283;51.466;5.478;2023-06-14T04:00:04;101329.97;;;27.96;34.79
68366;BME280;55283;51.466;5.478;2023-06-14T04:02:31;101330.09;;;28.02;35.00
68366;BME280;55283;51.466;5.478;2023-06-14T04:04:56;101333.91;;;27.99;35.15
68366;BME280;55283;51.466;5.478;2023-06-14T04:07:21;101341.31;;;27.96;35.16
68366;BME280;55283;51.466;5.478;2023-06-14T04:09:48;101337.22;;;27.97;35.08
68366;BME280;55283;51.466;5.478;2023-06-14T04:12:14;101341.31;;;27.96;35.27
68366;BME280;55283;51.466;5.478;2023-06-14T04:14:40;101339.72;;;27.95;34.92
68366;BME280;55283;51.466;5.478;2023-06-14T04:17:06;101341.78;;;27.95;35.27
68366;BME280;55283;51.466;5.478;2023-06-14T04:19:31;101338.06;;;27.89;35.20
68366;BME280;55283;51.466;5.478;2023-06-14T04:21:58;101334.91;;;27.87;34.94
68366;BME280;55283;51.466;5.478;2023-06-14T04:24:24;101348.72;;;27.94;35.01
68366;BME280;55283;51.466;5.478;2023-06-14T04:26:57;101350.78;;;27.93;35.13
68366;BME280;55283;51.466;5.478;2023-06-14T04:29:23;101356.72;;;27.95;34.97
68366;BME280;55283;51.466;5.478;2023-06-14T04:31:49;101347.75;;;27.97;35.16
68366;BME280;55283;51.466;5.478;2023-06-14T04:34:15;101348.22;;;27.95;35.24
68366;BME280;55283;51.466;5.478;2023-06-14T04:36:43;101351.06;;;27.95;34.90
68366;BME280;55283;51.466;5.478;2023-06-14T04:39:20;101353.13;;;27.95;35.18
68366;BME280;55283;51.466;5.478;2023-06-14T04:41:49;101358.47;;;27.93;35.17
68366;BME280;55283;51.466;5.478;2023-06-14T04:44:22;101351.06;;;27.95;34.82
68366;BME280;55283;51.466;5.478;2023-06-14T04:46:49;101356.44;;;27.93;35.06
68366;BME280;55283;51.466;5.478;2023-06-14T04:49:15;101363.50;;;27.98;35.26
68366;BME280;55283;51.466;5.478;2023-06-14T04:51:42;101360.19;;;28.00;35.05
68366;BME280;55283;51.466;5.478;2023-06-14T04:54:08;101361.28;;;28.02;34.95
68366;BME280;55283;51.466;5.478;2023-06-14T04:56:37;101360.66;;;27.98;35.06
68366;BME280;55283;51.466;5.478;2023-06-14T04:59:03;101366.63;;;28.00;34.84
68366;BME280;55283;51.466;5.478;2023-06-14T05:01:32;101349.31;;;27.98;34.97
68366;BME280;55283;51.466;5.478;2023-06-14T05:03:58;101364.75;;;27.97;35.15
68366;BME280;55283;51.466;5.478;2023-06-14T05:06:23;101360.53;;;27.92;35.25
68366;BME280;55283;51.466;5.478;2023-06-14T05:08:49;101356.13;;;27.91;34.78
68366;BME280;55283;51.466;5.478;2023-06-14T05:11:14;101357.53;;;27.96;35.00
68366;BME280;55283;51.466;5.478;2023-06-14T05:13:42;101365.06;;;27.99;35.17
68366;BME280;55283;51.466;5.478;2023-06-14T05:16:07;101366.13;;;28.02;34.90
68366;BME280;55283;51.466;5.478;2023-06-14T05:18:33;101362.72;;;27.97;34.80
68366;BME280;55283;51.466;5.478;2023-06-14T05:21:02;101375.72;;;28.04;35.06
68366;BME280;55283;51.466;5.478;2023-06-14T05:23:29;101367.91;;;27.99;35.08
68366;BME280;55283;51.466;5.478;2023-06-14T05:25:55;101380.03;;;28.00;34.77
68366;BME280;55283;51.466;5.478;2023-06-14T05:28:21;101374.34;;;28.00;35.09
68366;BME280;55283;51.466;5.478;2023-06-14T05:30:47;101384.91;;;27.99;34.66
68366;BME280;55283;51.466;5.478;2023-06-14T05:33:12;101371.72;;;27.96;34.92
68366;BME280;55283;51.466;5.478;2023-06-14T05:35:38;101375.72;;;28.04;34.99
68366;BME280;55283;51.466;5.478;2023-06-14T05:38:03;101354.09;;;27.92;34.93
68366;BME280;55283;51.466;5.478;2023-06-14T05:40:29;101380.03;;;28.00;34.68
68366;BME280;55283;51.466;5.478;2023-06-14T05:42:54;101384.09;;;27.98;34.81
68366;BME280;55283;51.466;5.478;2023-06-14T05:45:19;101386.66;;;27.96;35.04
68366;BME280;55283;51.466;5.478;2023-06-14T05:47:45;101394.00;;;28.03;34.88
68366;BME280;55283;51.466;5.478;2023-06-14T05:50:10;101395.28;;;28.02;34.97
68366;BME280;55283;51.466;5.478;2023-06-14T05:52:36;101397.81;;;28.00;34.90
68366;BME280;55283;51.466;5.478;2023-06-14T05:55:03;101395.28;;;28.02;34.90
68366;BME280;55283;51.466;5.478;2023-06-14T05:57:28;101393.22;;;28.03;34.96
68366;BME280;55283;51.466;5.478;2023-06-14T05:59:54;101387.25;;;28.01;34.75
68366;BME280;55283;51.466;5.478;2023-06-14T06:02:20;101383.44;;;28.04;34.43
68366;BME280;55283;51.466;5.478;2023-06-14T06:04:45;101394.19;;;28.00;34.51
68366;BME280;55283;51.466;5.478;2023-06-14T06:07:11;101404.81;;;28.14;34.36
68366;BME280;55283;51.466;5.478;2023-06-14T06:09:36;101400.56;;;28.09;34.47
68366;BME280;55283;51.466;5.478;2023-06-14T06:12:02;101401.97;;;28.14;34.62
68366;BME280;55283;51.466;5.478;2023-06-14T06:14:27;101404.03;;;28.13;34.40
68366;BME280;55283;51.466;5.478;2023-06-14T06:16:54;101395.22;;;28.11;34.29
68366;BME280;55283;51.466;5.478;2023-06-14T06:19:19;101418.78;;;28.17;34.52
68366;BME280;55283;51.466;5.478;2023-06-14T06:21:45;101414.19;;;28.20;34.24
68366;BME280;55283;51.466;5.478;2023-06-14T06:24:10;101407.44;;;28.17;34.37
68366;BME280;55283;51.466;5.478;2023-06-14T06:26:35;101419.09;;;28.19;34.43
68366;BME280;55283;51.466;5.478;2023-06-14T06:29:01;101428.56;;;28.16;34.41
68366;BME280;55283;51.466;5.478;2023-06-14T06:31:27;101411.91;;;28.09;34.28
68366;BME280;55283;51.466;5.478;2023-06-14T06:33:55;101428.56;;;28.16;34.71
68366;BME280;55283;51.466;5.478;2023-06-14T06:36:21;101426.19;;;28.15;34.33
68366;BME280;55283;51.466;5.478;2023-06-14T06:38:47;101432.97;;;28.17;34.23
68366;BME280;55283;51.466;5.478;2023-06-14T06:41:13;101430.44;;;28.19;34.43
68366;BME280;55283;51.466;5.478;2023-06-14T06:43:38;101438.44;;;28.21;34.31
68366;BME280;55283;51.466;5.478;2023-06-14T06:46:04;101439.72;;;28.20;34.64
68366;BME280;55283;51.466;5.478;2023-06-14T06:48:29;101440.31;;;28.24;34.47
68366;BME280;55283;51.466;5.478;2023-06-14T06:50:55;101443.31;;;28.20;34.70
68366;BME280;55283;51.466;5.478;2023-06-14T06:53:20;101451.81;;;28.20;34.36
68366;BME280;55283;51.466;5.478;2023-06-14T06:55:46;101448.53;;;28.22;34.66
68366;BME280;55283;51.466;5.478;2023-06-14T06:58:12;101454.66;;;28.20;34.45
68366;BME280;55283;51.466;5.478;2023-06-14T07:00:37;101454.97;;;28.23;34.52
68366;BME280;55283;51.466;5.478;2023-06-14T07:03:03;101466.31;;;28.23;34.71
68366;BME280;55283;51.466;5.478;2023-06-14T07:05:29;101452.72;;;28.27;34.44
68366;BME280;55283;51.466;5.478;2023-06-14T07:07:54;101458.09;;;28.25;34.47
68366;BME280;55283;51.466;5.478;2023-06-14T07:10:20;101461.25;;;28.27;34.68
68366;BME280;55283;51.466;5.478;2023-06-14T07:12:45;101455.56;;;28.27;34.57
68366;BME280;55283;51.466;5.478;2023-06-14T07:15:11;101476.97;;;28.28;34.40
68366;BME280;55283;51.466;5.478;2023-06-14T07:17:37;101460.47;;;28.26;34.63
68366;BME280;55283;51.466;5.478;2023-06-14T07:20:03;101450.56;;;28.21;34.53
68366;BME280;55283;51.466;5.478;2023-06-14T07:22:33;101463.75;;;28.25;34.42
68366;BME280;55283;51.466;5.478;2023-06-14T07:24:58;101475.41;;;28.27;34.51
68366;BME280;55283;51.466;5.478;2023-06-14T07:27:24;101472.38;;;28.30;34.42
68366;BME280;55283;51.466;5.478;2023-06-14T07:29:49;101469.41;;;28.34;34.41
68366;BME280;55283;51.466;5.478;2023-06-14T07:32:15;101475.06;;;28.34;34.58
68366;BME280;55283;51.466;5.478;2023-06-14T07:34:40;101478.69;;;28.34;34.30
68366;BME280;55283;51.466;5.478;2023-06-14T07:37:06;101477.09;;;28.33;34.46
68366;BME280;55283;51.466;5.478;2023-06-14T07:39:31;101488.75;;;28.35;34.69
68366;BME280;55283;51.466;5.478;2023-06-14T07:41:56;101471.03;;;28.26;34.70
68366;BME280;55283;51.466;5.478;2023-06-14T07:44:22;101487.97;;;28.35;34.28
68366;BME280;55283;51.466;5.478;2023-06-14T07:46:47;101497.06;;;28.39;34.68
68366;BME280;55283;51.466;5.478;2023-06-14T07:49:14;101490.63;;;28.38;34.54
68366;BME280;55283;51.466;5.478;2023-06-14T07:51:40;101492.66;;;28.38;34.41
68366;BME280;55283;51.466;5.478;2023-06-14T07:54:05;101492.16;;;28.39;34.54
68366;BME280;55283;51.466;5.478;2023-06-14T07:56:32;101484.81;;;28.33;34.64
68366;BME280;55283;51.466;5.478;2023-06-14T07:58:58;101498.66;;;28.40;34.70
68366;BME280;55283;51.466;5.478;2023-06-14T08:01:23;101502.44;;;28.37;34.48
68366;BME280;55283;51.466;5.478;2023-06-14T08:03:50;101495.38;;;28.32;34.30
68366;BME280;55283;51.466;5.478;2023-06-14T08:06:16;101505.09;;;28.40;34.54
68366;BME280;55283;51.466;5.478;2023-06-14T08:08:41;101505.91;;;28.41;34.76
68366;BME280;55283;51.466;5.478;2023-06-14T08:11:07;101508.56;;;28.45;34.37
68366;BME280;55283;51.466;5.478;2023-06-14T08:13:32;101513.75;;;28.46;34.44
68366;BME280;55283;51.466;5.478;2023-06-14T08:15:57;101507.47;;;28.42;34.58
68366;BME280;55283;51.466;5.478;2023-06-14T08:18:23;101486.41;;;28.34;34.41
68366;BME280;55283;51.466;5.478;2023-06-14T08:20:49;101508.56;;;28.45;34.54
68366;BME280;55283;51.466;5.478;2023-06-14T08:23:15;101506.03;;;28.47;34.37
68366;BME280;55283;51.466;5.478;2023-06-14T08:25:44;101507.00;;;28.43;34.64
68366;BME280;55283;51.466;5.478;2023-06-14T08:28:10;101503.97;;;28.47;34.41
68366;BME280;55283;51.466;5.478;2023-06-14T08:30:35;101500.94;;;28.51;34.64
68366;BME280;55283;51.466;5.478;2023-06-14T08:33:01;101504.88;;;28.53;34.53
68366;BME280;55283;51.466;5.478;2023-06-14T08:35:26;101497.16;;;28.54;34.60
68366;BME280;55283;51.466;5.478;2023-06-14T08:37:52;101503.13;;;28.56;34.32
68366;BME280;55283;51.466;5.478;2023-06-14T08:40:23;101503.63;;;28.54;34.39
68366;BME280;55283;51.466;5.478;2023-06-14T08:42:53;101506.28;;;28.58;34.43
68366;BME280;55283;51.466;5.478;2023-06-14T08:45:20;101500.78;;;28.54;34.52
68366;BME280;55283;51.466;5.478;2023-06-14T08:47:47;101502.66;;;28.57;34.31
68366;BME280;55283;51.466;5.478;2023-06-14T08:50:20;101494.31;;;28.54;34.21
68366;BME280;55283;51.466;5.478;2023-06-14T08:52:45;101500.09;;;28.59;34.54
68366;BME280;55283;51.466;5.478;2023-06-14T08:55:15;101501.97;;;28.62;34.38
68366;BME280;55283;51.466;5.478;2023-06-14T08:57:43;101499.94;;;28.63;34.29
68366;BME280;55283;51.466;5.478;2023-06-14T09:00:10;101474.66;;;28.50;34.23
68366;BME280;55283;51.466;5.478;2023-06-14T09:02:39;101500.22;;;28.65;34.28
68366;BME280;55283;51.466;5.478;2023-06-14T09:05:12;101488.41;;;28.67;34.22
68366;BME280;55283;51.466;5.478;2023-06-14T09:07:43;101498.34;;;28.62;34.33
68366;BME280;55283;51.466;5.478;2023-06-14T09:10:14;101496.13;;;28.66;34.49
68366;BME280;55283;51.466;5.478;2023-06-14T09:12:40;101503.56;;;28.63;34.48
68366;BME280;55283;51.466;5.478;2023-06-14T09:15:07;101480.75;;;28.58;34.22
68366;BME280;55283;51.466;5.478;2023-06-14T09:17:40;101496.91;;;28.67;34.37
68366;BME280;55283;51.466;5.478;2023-06-14T09:20:07;101494.84;;;28.67;34.07
68366;BME280;55283;51.466;5.478;2023-06-14T09:22:38;101506.78;;;28.71;34.22
68366;BME280;55283;51.466;5.478;2023-06-14T09:25:04;101505.44;;;28.67;34.38
68366;BME280;55283;51.466;5.478;2023-06-14T09:27:30;101504.16;;;28.68;34.36
68366;BME280;55283;51.466;5.478;2023-06-14T09:29:56;101501.63;;;28.70;34.48
68366;BME280;55283;51.466;5.478;2023-06-14T09:32:22;101493.88;;;28.70;34.35
68366;BME280;55283;51.466;5.478;2023-06-14T09:34:47;101506.00;;;28.71;34.20
68366;BME280;55283;51.466;5.478;2023-06-14T09:37:26;101515.13;;;28.75;34.32
68366;BME280;55283;51.466;5.478;2023-06-14T09:39:52;101500.06;;;28.69;34.25
68366;BME280;55283;51.466;5.478;2023-06-14T09:42:18;101516.38;;;28.74;34.03
68366;BME280;55283;51.466;5.478;2023-06-14T09:44:48;101509.94;;;28.73;34.51
68366;BME280;55283;51.466;5.478;2023-06-14T09:47:15;101489.56;;;28.60;34.21
68366;BME280;55283;51.466;5.478;2023-06-14T09:49:41;101506.00;;;28.71;34.11
68366;BME280;55283;51.466;5.478;2023-06-14T09:52:10;101517.97;;;28.75;34.36
68366;BME280;55283;51.466;5.478;2023-06-14T09:54:41;101508.19;;;28.76;34.13
68366;BME280;55283;51.466;5.478;2023-06-14T09:57:10;101508.97;;;28.76;34.43
68366;BME280;55283;51.466;5.478;2023-06-14T09:59:42;101499.69;;;28.76;34.04
68366;BME280;55283;51.466;5.478;2023-06-14T10:02:18;101514.44;;;28.80;34.24
68366;BME280;55283;51.466;5.478;2023-06-14T10:04:55;101509.59;;;28.80;34.16
68366;BME280;55283;51.466;5.478;2023-06-14T10:07:23;101501.53;;;28.79;34.23
68366;BME280;55283;51.466;5.478;2023-06-14T10:09:53;101500.16;;;28.74;34.10
68366;BME280;55283;51.466;5.478;2023-06-14T10:12:18;101514.16;;;28.78;34.26
68366;BME280;55283;51.466;5.478;2023-06-14T10:14:51;101501.06;;;28.80;34.01
68366;BME280;55283;51.466;5.478;2023-06-14T10:17:25;101492.06;;;28.82;34.23
68366;BME280;55283;51.466;5.478;2023-06-14T10:23:37;101494.91;;;28.82;34.05
68366;BME280;55283;51.466;5.478;2023-06-14T10:26:03;101498.03;;;28.84;34.04
68366;BME280;55283;51.466;5.478;2023-06-14T10:28:30;101492.38;;;28.84;34.37
68366;BME280;55283;51.466;5.478;2023-06-14T10:31:09;101481.97;;;28.81;34.13
68366;BME280;55283;51.466;5.478;2023-06-14T10:33:56;101495.78;;;28.88;33.96
68366;BME280;55283;51.466;5.478;2023-06-14T10:41:27;101501.34;;;28.82;34.31
68366;BME280;55283;51.466;5.478;2023-06-14T10:44:10;101496.66;;;28.79;34.18
68366;BME280;55283;51.466;5.478;2023-06-14T10:46:58;101504.00;;;28.86;34.40
68366;BME280;55283;51.466;5.478;2023-06-14T10:52:14;101495.97;;;28.84;34.16
68366;BME280;55283;51.466;5.478;2023-06-14T10:55:04;101498.63;;;28.88;34.05
68366;BME280;55283;51.466;5.478;2023-06-14T10:57:30;101513.78;;;28.85;34.17
68366;BME280;55283;51.466;5.478;2023-06-14T10:59:59;101505.56;;;28.87;34.03
68366;BME280;55283;51.466;5.478;2023-06-14T11:05:14;101502.75;;;28.87;34.29
68366;BME280;55283;51.466;5.478;2023-06-14T11:12:55;101501.47;;;28.88;33.97
68366;BME280;55283;51.466;5.478;2023-06-14T11:15:30;101504.09;;;28.92;34.06
68366;BME280;55283;51.466;5.478;2023-06-14T11:17:57;101498.94;;;28.90;34.26
68366;BME280;55283;51.466;5.478;2023-06-14T11:20:26;101485.09;;;28.83;34.26
68366;BME280;55283;51.466;5.478;2023-06-14T11:22:53;101478.44;;;28.86;33.85
68366;BME280;55283;51.466;5.478;2023-06-14T11:25:19;101485.50;;;28.91;34.04
68366;BME280;55283;51.466;5.478;2023-06-14T11:27:45;101480.94;;;28.93;34.24
68366;BME280;55283;51.466;5.478;2023-06-14T11:30:13;101481.59;;;28.88;34.22
68366;BME280;55283;51.466;5.478;2023-06-14T11:32:38;101485.03;;;28.92;34.12
68366;BME280;55283;51.466;5.478;2023-06-14T11:35:05;101495.13;;;28.93;33.89
68366;BME280;55283;51.466;5.478;2023-06-14T11:37:31;101489.44;;;28.93;34.04
68366;BME280;55283;51.466;5.478;2023-06-14T11:40:00;101495.13;;;28.93;34.07
68366;BME280;55283;51.466;5.478;2023-06-14T11:42:29;101484.44;;;28.88;33.90
68366;BME280;55283;51.466;5.478;2023-06-14T11:44:55;101488.66;;;28.93;34.02
68366;BME280;55283;51.466;5.478;2023-06-14T11:47:22;101479.84;;;28.91;34.09
68366;BME280;55283;51.466;5.478;2023-06-14T11:49:47;101491.50;;;28.93;34.31
68366;BME280;55283;51.466;5.478;2023-06-14T11:52:13;101480.63;;;28.91;34.12
68366;BME280;55283;51.466;5.478;2023-06-14T11:54:39;101490.22;;;28.94;33.84
68366;BME280;55283;51.466;5.478;2023-06-14T11:57:06;101484.53;;;28.94;34.29
68366;BME280;55283;51.466;5.478;2023-06-14T11:59:38;101479.66;;;28.94;33.80
68366;BME280;55283;51.466;5.478;2023-06-14T12:02:07;101478.88;;;28.94;34.13
68366;BME280;55283;51.466;5.478;2023-06-14T12:04:33;101482.69;;;28.91;34.08
68366;BME280;55283;51.466;5.478;2023-06-14T12:07:11;101490.41;;;28.90;33.92
68366;BME280;55283;51.466;5.478;2023-06-14T12:12:21;101475.34;;;28.84;34.10
68366;BME280;55283;51.466;5.478;2023-06-14T12:14:47;101483.97;;;28.90;34.25
68366;BME280;55283;51.466;5.478;2023-06-14T12:17:12;101470.44;;;28.84;34.12
68366;BME280;55283;51.466;5.478;2023-06-14T12:19:42;101482.56;;;28.85;34.33
68366;BME280;55283;51.466;5.478;2023-06-14T12:22:14;101469.66;;;28.84;33.95
68366;BME280;55283;51.466;5.478;2023-06-14T12:24:43;101476.22;;;28.90;34.16
68366;BME280;55283;51.466;5.478;2023-06-14T12:27:08;101479.53;;;28.88;34.27
68366;BME280;55283;51.466;5.478;2023-06-14T12:29:37;101474.84;;;28.85;33.87
68366;BME280;55283;51.466;5.478;2023-06-14T12:32:02;101488.84;;;28.89;33.86
68366;BME280;55283;51.466;5.478;2023-06-14T12:34:28;101491.19;;;28.91;33.96
68366;BME280;55283;51.466;5.478;2023-06-14T12:36:54;101485.50;;;28.91;34.01
68366;BME280;55283;51.466;5.478;2023-06-14T12:39:20;101478.44;;;28.86;33.99
68366;BME280;55283;51.466;5.478;2023-06-14T12:41:49;101489.13;;;28.91;33.78
68366;BME280;55283;51.466;5.478;2023-06-14T12:44:15;101483.19;;;28.89;33.85
68366;BME280;55283;51.466;5.478;2023-06-14T12:46:41;101471.84;;;28.89;33.87
68366;BME280;55283;51.466;5.478;2023-06-14T12:49:09;101490.88;;;28.88;34.02
68366;BME280;55283;51.466;5.478;2023-06-14T12:51:35;101485.22;;;28.88;34.14
68366;BME280;55283;51.466;5.478;2023-06-14T12:54:00;101494.53;;;28.89;34.27
68366;BME280;55283;51.466;5.478;2023-06-14T12:56:26;101496.88;;;28.91;33.98
68366;BME280;55283;51.466;5.478;2023-06-14T12:58:51;101491.97;;;28.91;34.14
68366;BME280;55283;51.466;5.478;2023-06-14T13:01:17;101488.06;;;28.88;34.08
68366;BME280;55283;51.466;5.478;2023-06-14T13:03:43;101487.47;;;28.84;33.65
68366;BME280;55283;51.466;5.478;2023-06-14T13:06:08;101495.47;;;28.86;34.11
68366;BME280;55283;51.466;5.478;2023-06-14T13:08:34;101504.00;;;28.86;34.15
68366;BME280;55283;51.466;5.478;2023-06-14T13:10:59;101499.59;;;28.85;34.00
68366;BME280;55283;51.466;5.478;2023-06-14T13:13:25;101491.59;;;28.83;33.77
68366;BME280;55283;51.466;5.478;2023-06-14T13:15:50;101500.56;;;28.82;33.96